This is the latest recevied weather packets stored in our database for station/object BMCB-14. If no packets are shown the sender has not sent any weather packets the latest 10 day(s).
| Time | Temp. | Humidity | Pressure | Rain* | Wind** | Luminosity | Snow |
|---|---|---|---|---|---|---|---|
| 1777122645 | 16.67° C | 38% | 1021.5 hPa | 0 mm | - | 744 W/m² | - |
| 1777121446 | 16.11° C | 34% | 1021.6 hPa | 0 mm | - | 770 W/m² | - |
| 1777120850 | 16.67° C | 38% | 1021.6 hPa | 0 mm | - | 778 W/m² | - |
| 1777113645 | 14.44° C | 64% | 1022.2 hPa | 0 mm | - | 770 W/m² | - |
| 1777108246 | 12.78° C | 63% | 1022.4 hPa | 0 mm | - | 666 W/m² | - |
| 1777105245 | 11.67° C | 73% | 1022.3 hPa | 0 mm | - | 558 W/m² | - |
| 1777101045 | 7.78° C | 87% | 1022.6 hPa | 0 mm | - | 380 W/m² | - |
| 1777095044 | 0.56° C | 10% | 1022.8 hPa | 0 mm | - | - | - |
| 1777089643 | 1.11° C | 98% | 1022.4 hPa | 0 mm | - | 0 W/m² | - |
| 1777089046 | 1.11° C | 98% | 1022.5 hPa | 0 mm | - | 0 W/m² | - |
| 1777085445 | 1.67° C | 96% | 1022.8 hPa | 0 mm | - | 0 W/m² | - |
| 1777083048 | 2.22° C | 95% | 1022.7 hPa | 0 mm | - | 0 W/m² | - |
| 1777080642 | 2.78° C | 93% | 1022.8 hPa | 0 mm | - | 0 W/m² | - |
| 1777078248 | 3.33° C | 92% | 1023.1 hPa | 0 mm | - | 0 W/m² | - |
| 1777076446 | 3.33° C | 91% | 1023.3 hPa | 0 mm | - | 0 W/m² | - |
| 1777074645 | 3.89° C | 89% | 1023.5 hPa | 0 mm | - | 0 W/m² | - |
| 1777072849 | 5° C | 87% | 1023.7 hPa | 0 mm | - | 0 W/m² | - |
| 1777067448 | 6.67° C | 80% | 1023.8 hPa | 0 mm | - | 0 W/m² | - |
| 1777056644 | 12.78° C | 57% | 1023 hPa | 0 mm | - | 4 W/m² | - |
| 1777055447 | 13.89° C | 53% | 1022.9 hPa | 0 mm | - | 16 W/m² | - |
| 1777050048 | 16.67° C | 47% | 1023 hPa | 0 mm | - | 176 W/m² | - |
| 1777049448 | 16.67° C | 46% | 1023 hPa | 0 mm | - | 206 W/m² | - |
| 1777048846 | 16.67° C | 46% | 1023 hPa | 0 mm | - | 236 W/m² | - |
| 1777045844 | 17.22° C | 45% | 1023.5 hPa | 0 mm | - | 376 W/m² | - |
| 1777045246 | 16.67° C | 48% | 1023.7 hPa | 0 mm | - | 400 W/m² | - |
* Rain latest hour (hover to see other rain measurements)
** Current wind speed in m/s (hover to see current wind gust speed)